Troy, Ohio
Current Conditions -  °F | °C
As of 5:56 PM on Thursday 23 Oct 2014 (Local Time) from KDAY Reporting Station
Broken Clouds Broken Clouds  
Wind Chill: 58°   Ceiling: 25000
Heat Index: 58°   Visibility: 10mi
Dew Point: 41°   Wind: 0mph
Humidity: 53%   Direction: NA
Pressure: 30.14"   Gusts: NA
Location:  40.04°N, 84.2°W
Report Text: KDAY 232156Z 00000KT 10SM BKN250 14/05 A3014 RMK AO2 SLP209 T01440050
Loading
Personal Weather Stations






























Interactive Weather Map
Tropical Storm Tracking
New forecast layout! Learn more

10-Day Weather Forecast

Advertisements
Track Severe Weather on mobile